Time;durP1;ratioP1;P1;durP2;ratioP2;P2;SDS_P1;SDS_P2;PMS_P1;PMS_P2;Temp;Humidity;BMP_temperature;BMP_pressure;BME280_temperature;BME280_humidity;BME280_pressure;Samples;Min_cycle;Max_cycle;Signal;HPM_P1;HPM_P2
2024/04/11 00:00:47;;;;;;;5.93;3.45;;;;;;;3.14;75.52;101901.94;2701723;26;20073;-76
2024/04/11 00:04:10;;;;;;;8.38;4.95;;;;;;;3.05;75.37;101903.31;2698008;26;20062;-75
2024/04/11 00:05:23;;;;;;;10.82;3.97;;;;;;;3.03;75.26;101904.06;2704542;26;20078;-75
2024/04/11 00:06:38;;;;;;;4.32;3.22;;;;;;;3.02;75.48;101904.88;2701889;26;20003;-76
2024/04/11 00:07:51;;;;;;;4.90;3.17;;;;;;;3.01;75.78;101896.25;2705143;26;20000;-76
2024/04/11 00:09:05;;;;;;;7.07;4.32;;;;;;;3.02;75.41;101900.63;2700969;26;20004;-76
2024/04/11 00:10:18;;;;;;;10.63;3.75;;;;;;;3.02;75.60;101905.78;2702035;26;20027;-76
2024/04/11 00:11:31;;;;;;;5.10;3.83;;;;;;;3.02;75.68;101908.34;2703958;26;20005;-76
2024/04/11 00:12:44;;;;;;;5.35;3.22;;;;;;;3.00;75.42;101909.09;2702239;26;20019;-75
2024/04/11 00:13:59;;;;;;;6.63;3.78;;;;;;;2.96;75.83;101900.34;2690445;26;20016;-76
2024/04/11 00:15:12;;;;;;;8.15;3.53;;;;;;;2.92;75.56;101902.72;2692997;26;22337;-76
2024/04/11 00:16:25;;;;;;;4.03;3.60;;;;;;;2.88;75.14;101903.41;2702679;26;20040;-76
2024/04/11 00:17:39;;;;;;;5.60;3.25;;;;;;;2.82;75.72;101906.63;2701497;26;20023;-75
2024/04/11 00:18:52;;;;;;;6.57;3.40;;;;;;;2.78;75.77;101913.31;2700598;26;20008;-75
2024/04/11 00:20:05;;;;;;;8.32;3.58;;;;;;;2.77;75.50;101915.84;2704233;26;20008;-75
2024/04/11 00:21:18;;;;;;;7.82;3.42;;;;;;;2.75;75.29;101913.19;2718737;21;20012;-74
2024/04/11 00:22:32;;;;;;;6.00;3.60;;;;;;;2.72;75.67;101910.50;2705766;26;20143;-74
2024/04/11 00:23:48;;;;;;;8.88;4.03;;;;;;;2.71;75.54;101910.41;2703425;26;20072;-74
2024/04/11 00:25:01;;;;;;;5.30;3.67;;;;;;;2.66;75.53;101906.75;2694394;26;20036;-74
2024/04/11 00:26:15;;;;;;;6.30;3.38;;;;;;;2.65;75.96;101905.00;2693359;26;20011;-75
2024/04/11 00:27:28;;;;;;;2.97;2.72;;;;;;;2.66;75.94;101912.81;2706082;26;20012;-75
2024/04/11 00:28:41;;;;;;;5.95;3.15;;;;;;;2.70;76.02;101909.53;2720547;26;20004;-75
2024/04/11 00:29:55;;;;;;;4.75;4.05;;;;;;;2.74;75.92;101905.41;2696265;26;20419;-75
2024/04/11 00:31:08;;;;;;;7.05;3.85;;;;;;;2.78;76.29;101909.88;2710635;26;20490;-75
2024/04/11 00:32:24;;;;;;;6.78;3.47;;;;;;;2.78;75.81;101905.59;2711052;26;20035;-75
2024/04/11 00:33:38;;;;;;;8.80;3.83;;;;;;;2.79;75.82;101914.22;2729743;26;19999;-75
2024/04/11 00:34:53;;;;;;;5.65;3.38;;;;;;;2.78;75.63;101915.03;2722767;26;20070;-74
2024/04/11 00:36:06;;;;;;;6.97;3.67;;;;;;;2.73;76.14;101909.66;2711386;26;20010;-75
2024/04/11 00:37:22;;;;;;;8.52;3.42;;;;;;;2.68;75.77;101908.59;2710581;26;20003;-75
2024/04/11 00:38:35;;;;;;;3.80;2.97;;;;;;;2.62;76.05;101906.63;2711739;26;20438;-75
2024/04/11 00:39:48;;;;;;;5.85;3.35;;;;;;;2.58;76.01;101907.31;2711258;26;20004;-74
2024/04/11 00:41:02;;;;;;;6.75;3.38;;;;;;;2.53;76.02;101906.25;2723490;26;19999;-75
2024/04/11 00:42:15;;;;;;;4.70;3.90;;;;;;;2.49;75.98;101909.47;2722855;26;20004;-74
2024/04/11 00:43:30;;;;;;;5.40;4.10;;;;;;;2.48;75.89;101907.72;2722971;26;20072;-75
2024/04/11 00:44:43;;;;;;;7.03;3.22;;;;;;;2.45;75.99;101905.00;2724202;26;19995;-74
2024/04/11 00:45:57;;;;;;;5.30;3.88;;;;;;;2.45;76.22;101905.00;2724307;26;20039;-74
2024/04/11 00:47:11;;;;;;;5.82;3.55;;;;;;;2.42;76.44;101907.44;2711294;26;19995;-75
2024/04/11 00:48:25;;;;;;;8.30;3.58;;;;;;;2.39;76.12;101907.31;2722884;26;20018;-74
2024/04/11 00:49:39;;;;;;;11.98;4.10;;;;;;;2.36;76.44;101910.63;2722908;26;19996;-75
2024/04/11 00:50:53;;;;;;;4.40;3.17;;;;;;;2.34;76.10;101901.94;2711679;26;19999;-74
2024/04/11 00:52:07;;;;;;;6.38;4.75;;;;;;;2.32;76.48;101910.41;2710994;26;20012;-75
2024/04/11 00:53:22;;;;;;;5.70;4.32;;;;;;;2.32;76.69;101911.31;2723196;26;19992;-74
2024/04/11 00:54:35;;;;;;;8.73;5.20;;;;;;;2.32;76.65;101905.25;2722612;26;20031;-74
2024/04/11 00:55:49;;;;;;;5.13;4.63;;;;;;;2.32;76.86;101901.00;2710526;26;19995;-75
2024/04/11 00:57:07;;;;;;;4.15;3.47;;;;;;;2.31;76.66;101901.81;2712540;26;20018;-74
2024/04/11 00:58:22;;;;;;;8.80;3.83;;;;;;;2.28;76.60;101898.22;2725195;26;20471;-74
2024/04/11 00:59:41;;;;;;;8.13;3.47;;;;;;;2.26;76.75;101900.72;2724392;26;20000;-74
2024/04/11 01:00:54;;;;;;;3.55;3.17;;;;;;;2.22;76.96;101909.13;2696879;26;20000;-75
2024/04/11 01:02:11;;;;;;;4.07;3.67;;;;;;;2.20;76.94;101903.03;2696610;26;20011;-74
2024/04/11 01:03:24;;;;;;;4.22;3.80;;;;;;;2.18;76.85;101905.53;2695631;26;20008;-74
2024/04/11 01:04:38;;;;;;;4.97;3.30;;;;;;;2.17;76.97;101911.50;2708827;26;19999;-74
2024/04/11 01:05:52;;;;;;;9.30;3.78;;;;;;;2.17;76.92;101910.63;2722310;26;20347;-74
2024/04/11 01:07:07;;;;;;;5.63;3.22;;;;;;;2.17;76.99;101901.19;2688747;26;20005;-74
2024/04/11 01:08:25;;;;;;;7.15;3.88;;;;;;;2.12;77.22;101900.09;2695804;26;20019;-74
2024/04/11 01:09:43;;;;;;;7.50;4.70;;;;;;;2.09;76.81;101907.69;2707174;26;20001;-75
2024/04/11 01:10:57;;;;;;;13.15;4.25;;;;;;;2.06;77.00;101901.50;2707186;26;20000;-74
2024/04/11 01:12:14;;;;;;;7.70;3.78;;;;;;;2.04;76.96;101898.88;2705889;26;20424;-74
2024/04/11 01:13:27;;;;;;;5.60;3.90;;;;;;;2.04;77.09;101898.88;2724016;26;20042;-75
2024/04/11 01:14:44;;;;;;;4.68;4.28;;;;;;;2.02;76.87;101902.19;2736647;26;20003;-74
2024/04/11 01:15:57;;;;;;;5.28;3.47;;;;;;;2.03;77.17;101899.66;2723998;26;19999;-74
2024/04/11 01:17:15;;;;;;;11.18;4.20;;;;;;;2.03;77.02;101898.78;2724442;26;20049;-74
2024/04/11 01:18:29;;;;;;;7.53;3.75;;;;;;;2.01;76.99;101897.81;2724500;26;20000;-75
2024/04/11 01:19:44;;;;;;;5.20;3.58;;;;;;;2.02;77.00;101905.63;2724383;26;20451;-74
2024/04/11 01:20:57;;;;;;;9.88;3.67;;;;;;;2.00;76.77;101898.66;2725350;26;20468;-75
2024/04/11 01:22:10;;;;;;;4.80;4.18;;;;;;;1.97;77.11;101901.97;2725672;26;20072;-74
2024/04/11 01:23:24;;;;;;;4.60;3.85;;;;;;;1.98;77.35;101898.56;2723943;26;20064;-75
2024/04/11 01:24:40;;;;;;;5.22;3.60;;;;;;;2.01;77.09;101893.56;2713231;26;20004;-74
2024/04/11 01:25:53;;;;;;;8.02;4.32;;;;;;;2.06;77.12;101893.78;2713069;26;20380;-74
2024/04/11 01:27:08;;;;;;;6.38;3.58;;;;;;;2.10;77.21;101893.13;2712514;26;20003;-75
2024/04/11 01:28:21;;;;;;;5.00;4.07;;;;;;;2.11;77.11;101889.72;2712836;26;20014;-74
2024/04/11 01:29:36;;;;;;;4.35;3.80;;;;;;;2.09;77.25;101899.97;2699347;26;20352;-74
2024/04/11 01:30:49;;;;;;;7.38;3.90;;;;;;;2.05;76.90;101892.91;2697814;26;20444;-74
2024/04/11 01:32:03;;;;;;;5.07;3.42;;;;;;;2.03;76.95;101899.66;2712285;26;19999;-74
2024/04/11 01:33:16;;;;;;;4.72;3.85;;;;;;;1.99;76.91;101900.34;2724507;26;20007;-74
2024/04/11 01:34:30;;;;;;;8.32;3.78;;;;;;;1.98;77.07;101896.00;2725399;26;20080;-74
2024/04/11 01:35:43;;;;;;;5.40;4.90;;;;;;;2.00;76.90;101896.94;2723915;26;20101;-74
2024/04/11 01:36:57;;;;;;;5.75;3.72;;;;;;;2.01;76.82;101895.25;2724245;26;20444;-74
2024/04/11 01:38:11;;;;;;;4.80;3.17;;;;;;;2.00;76.98;101899.53;2724596;26;20596;-74
2024/04/11 01:39:24;;;;;;;4.35;3.50;;;;;;;1.98;77.15;101896.00;2724592;26;20007;-74
2024/04/11 01:40:41;;;;;;;5.38;3.65;;;;;;;1.96;76.78;101895.03;2723895;26;19995;-74
2024/04/11 01:41:54;;;;;;;5.78;4.15;;;;;;;1.92;77.10;101899.16;2724614;26;20003;-74
2024/04/11 01:43:09;;;;;;;8.05;3.45;;;;;;;1.91;76.64;101893.94;2725403;26;20018;-74
2024/04/11 01:44:24;;;;;;;4.10;3.70;;;;;;;1.91;77.13;101897.41;2724045;26;20128;-74
2024/04/11 01:45:39;;;;;;;8.15;4.57;;;;;;;1.94;77.47;101896.69;2724743;26;20003;-74
2024/04/11 01:46:53;;;;;;;4.45;4.03;;;;;;;1.97;77.25;101896.81;2724381;26;20003;-74
2024/04/11 01:48:07;;;;;;;8.77;4.22;;;;;;;1.99;77.47;101887.47;2724444;26;20309;-74
2024/04/11 01:49:21;;;;;;;5.22;3.35;;;;;;;2.01;77.40;101893.56;2725414;26;20420;-74
2024/04/11 01:50:37;;;;;;;4.53;3.83;;;;;;;2.03;77.41;101886.78;2724160;26;20057;-74
2024/04/11 01:51:51;;;;;;;7.00;4.78;;;;;;;2.02;77.48;101890.19;2712872;26;20035;-74
2024/04/11 01:53:04;;;;;;;6.28;4.13;;;;;;;2.00;77.38;101886.66;2707803;26;20012;-74
2024/04/11 01:54:18;;;;;;;5.25;3.72;;;;;;;1.98;77.68;101879.66;2720852;26;20440;-74
2024/04/11 01:55:31;;;;;;;4.53;3.45;;;;;;;1.96;77.47;101885.66;2723722;26;20084;-74
2024/04/11 01:56:44;;;;;;;7.32;3.70;;;;;;;1.98;77.48;101882.25;2712540;26;20011;-74
2024/04/11 01:57:57;;;;;;;6.10;4.13;;;;;;;1.96;77.39;101887.31;2711972;26;20043;-74
2024/04/11 01:59:10;;;;;;;7.20;3.78;;;;;;;1.92;77.61;101882.84;2724465;26;20422;-74
2024/04/11 02:00:26;;;;;;;8.65;4.20;;;;;;;1.90;77.48;101887.03;2724877;26;20046;-74
2024/04/11 02:01:39;;;;;;;6.65;3.67;;;;;;;1.88;77.63;101891.22;2725478;26;20000;-74
2024/04/11 02:02:54;;;;;;;5.85;3.80;;;;;;;1.86;77.70;101883.44;2725019;26;20014;-74
2024/04/11 02:04:09;;;;;;;6.07;3.85;;;;;;;1.86;77.48;101888.59;2724110;26;20080;-75
2024/04/11 02:05:23;;;;;;;4.95;3.70;;;;;;;1.86;77.66;101883.44;2723663;26;20050;-75
2024/04/11 02:06:37;;;;;;;7.00;3.60;;;;;;;1.87;77.65;101886.91;2713247;26;19996;-74
2024/04/11 02:07:50;;;;;;;4.38;3.65;;;;;;;1.86;77.54;101891.19;2711636;26;20870;-74
2024/04/11 02:09:09;;;;;;;6.95;3.47;;;;;;;1.86;77.75;101887.69;2712246;26;20472;-74
2024/04/11 02:10:22;;;;;;;7.20;3.75;;;;;;;1.83;77.77;101882.41;2714000;26;20412;-74
2024/04/11 02:11:37;;;;;;;8.77;4.38;;;;;;;1.80;77.55;101885.72;2724544;26;19999;-74
2024/04/11 02:12:51;;;;;;;7.43;4.07;;;;;;;1.78;77.84;101884.75;2723986;26;19995;-74
2024/04/11 02:14:04;;;;;;;4.55;3.42;;;;;;;1.76;77.62;101881.25;2724715;26;20003;-74
2024/04/11 02:15:17;;;;;;;6.85;3.75;;;;;;;1.75;77.58;101879.47;2723989;26;19995;-74
2024/04/11 02:16:34;;;;;;;7.32;3.83;;;;;;;1.75;77.78;101888.06;2724190;26;20397;-74
2024/04/11 02:17:47;;;;;;;6.85;4.03;;;;;;;1.72;77.84;101885.34;2723742;26;20364;-75
2024/04/11 02:19:06;;;;;;;9.77;3.78;;;;;;;1.72;77.97;101889.63;2724889;26;20006;-74
2024/04/11 02:20:20;;;;;;;9.23;3.58;;;;;;;1.70;77.90;101886.09;2723929;26;20046;-74
2024/04/11 02:21:35;;;;;;;3.85;3.47;;;;;;;1.68;77.73;101895.47;2713778;26;19999;-74
2024/04/11 02:22:52;;;;;;;3.70;3.40;;;;;;;1.66;77.66;101891.94;2712781;26;20007;-74
2024/04/11 02:24:08;;;;;;;8.60;3.90;;;;;;;1.65;77.85;101892.72;2723470;26;19996;-74
2024/04/11 02:25:21;;;;;;;5.50;3.30;;;;;;;1.56;77.92;101890.59;2723948;26;20360;-74
2024/04/11 02:26:35;;;;;;;5.60;5.13;;;;;;;1.48;77.69;101886.78;2724610;26;20014;-75
2024/04/11 02:27:48;;;;;;;5.57;3.70;;;;;;;1.47;77.87;101892.72;2721709;26;20014;-74
2024/04/11 02:29:02;;;;;;;10.48;3.92;;;;;;;1.47;77.89;101897.84;2725023;26;20036;-74
2024/04/11 02:30:15;;;;;;;10.68;4.38;;;;;;;1.46;78.03;101894.41;2724174;26;20003;-74
2024/04/11 02:31:29;;;;;;;6.03;4.28;;;;;;;1.44;77.85;101896.03;2724113;26;20042;-74
2024/04/11 02:32:42;;;;;;;7.13;3.72;;;;;;;1.43;78.06;101895.97;2724141;26;19991;-74
2024/04/11 02:33:57;;;;;;;4.53;3.78;;;;;;;1.41;78.00;101895.00;2695623;26;20431;-74
2024/04/11 02:35:11;;;;;;;6.43;4.30;;;;;;;1.38;77.93;101894.84;2695115;26;20438;-74
2024/04/11 02:36:29;;;;;;;7.60;3.53;;;;;;;1.37;78.16;101895.66;2706210;26;20000;-74
2024/04/11 02:37:44;;;;;;;5.13;3.80;;;;;;;1.38;77.98;101892.28;2706211;26;20008;-74
2024/04/11 02:38:58;;;;;;;4.85;3.58;;;;;;;1.42;78.18;101896.75;2695943;26;19996;-74
2024/04/11 02:40:11;;;;;;;7.57;4.30;;;;;;;1.45;78.13;101897.81;2705546;26;20015;-74
2024/04/11 02:41:25;;;;;;;6.53;3.75;;;;;;;1.47;78.06;101895.28;2706287;26;20388;-74
2024/04/11 02:42:38;;;;;;;6.03;3.65;;;;;;;1.49;78.07;101893.69;2705652;26;20046;-75
2024/04/11 02:43:51;;;;;;;3.42;3.13;;;;;;;1.48;77.95;101897.06;2693922;26;20007;-74
2024/04/11 02:45:08;;;;;;;5.00;3.22;;;;;;;1.49;77.97;101898.81;2706509;26;20068;-74
2024/04/11 02:46:22;;;;;;;3.83;3.47;;;;;;;1.48;77.98;101899.66;2707493;26;20006;-74
2024/04/11 02:47:36;;;;;;;11.15;4.57;;;;;;;1.48;77.81;101902.22;2706615;26;19992;-74
2024/04/11 02:48:49;;;;;;;5.78;3.40;;;;;;;1.48;78.01;101904.78;2706847;26;20695;-74
2024/04/11 02:50:02;;;;;;;5.53;3.15;;;;;;;1.44;77.66;101905.44;2706303;26;20000;-74
2024/04/11 02:51:17;;;;;;;4.35;3.10;;;;;;;1.39;78.00;101901.75;2694634;26;20011;-74
2024/04/11 02:52:31;;;;;;;5.00;3.55;;;;;;;1.33;78.10;101914.34;2694647;26;20000;-75
2024/04/11 02:53:44;;;;;;;4.13;2.95;;;;;;;1.27;78.01;101902.94;2695244;26;20329;-74
2024/04/11 02:54:58;;;;;;;6.43;3.22;;;;;;;1.24;77.91;101907.94;2677006;26;20343;-74
2024/04/11 02:56:11;;;;;;;4.28;3.40;;;;;;;1.23;78.00;101907.84;2694798;26;20076;-74
2024/04/11 02:57:24;;;;;;;7.97;3.53;;;;;;;1.22;77.74;101912.09;2705491;26;20108;-74
2024/04/11 02:58:38;;;;;;;4.10;3.70;;;;;;;1.22;77.88;101912.09;2706289;26;20368;-75
2024/04/11 02:59:52;;;;;;;4.13;3.50;;;;;;;1.22;78.05;101911.22;2704993;26;20079;-74
2024/04/11 03:01:08;;;;;;;6.05;3.22;;;;;;;1.22;77.87;101909.53;2706389;26;20676;-74
2024/04/11 03:02:23;;;;;;;4.15;3.78;;;;;;;1.21;77.82;101914.59;2706365;26;20099;-75
2024/04/11 03:03:40;;;;;;;7.28;3.72;;;;;;;1.19;77.99;101908.47;2676880;26;20011;-74
2024/04/11 03:04:53;;;;;;;5.07;3.50;;;;;;;1.19;78.13;101908.47;2686624;26;19996;-74
2024/04/11 03:06:09;;;;;;;4.15;3.53;;;;;;;1.18;77.98;101910.19;2713155;26;20002;-74
2024/04/11 03:07:23;;;;;;;9.38;4.22;;;;;;;1.18;78.04;101912.75;2712077;26;19991;-73
2024/04/11 03:08:36;;;;;;;6.78;3.42;;;;;;;1.18;77.97;101917.00;2712950;26;20439;-74
2024/04/11 03:09:53;;;;;;;5.95;3.60;;;;;;;1.17;77.85;101913.56;2711837;26;20112;-74
2024/04/11 03:11:10;;;;;;;7.93;3.53;;;;;;;1.18;77.87;101910.19;2712896;26;19992;-74
2024/04/11 03:12:23;;;;;;;4.45;3.85;;;;;;;1.21;77.91;101912.91;2713448;26;20341;-74
2024/04/11 03:13:37;;;;;;;7.50;4.25;;;;;;;1.23;78.00;101910.41;2712032;26;20075;-75
2024/04/11 03:14:50;;;;;;;4.30;3.58;;;;;;;1.23;78.08;101915.56;2724229;26;20014;-75
2024/04/11 03:16:04;;;;;;;5.95;4.72;;;;;;;1.25;78.08;101911.38;2724316;26;20043;-74
2024/04/11 03:17:17;;;;;;;7.82;3.55;;;;;;;1.22;77.81;101917.25;2724520;26;20080;-74
2024/04/11 03:18:31;;;;;;;7.53;3.90;;;;;;;1.19;77.87;101918.78;2723364;26;20352;-74
2024/04/11 03:19:45;;;;;;;4.40;3.13;;;;;;;1.12;78.07;101917.59;2723307;26;20010;-74
2024/04/11 03:20:59;;;;;;;5.20;3.70;;;;;;;1.09;77.74;101920.91;2724510;26;20004;-74
2024/04/11 03:22:12;;;;;;;4.45;3.47;;;;;;;1.08;77.76;101924.28;2724830;26;20011;-74
2024/04/11 03:23:27;;;;;;;6.60;3.60;;;;;;;1.08;77.95;101936.22;2724381;26;20000;-74
2024/04/11 03:24:42;;;;;;;4.10;3.78;;;;;;;1.09;78.11;101940.59;2724447;26;20364;-74
2024/04/11 03:25:55;;;;;;;5.57;4.13;;;;;;;1.08;78.01;101929.44;2724302;26;20558;-74
2024/04/11 03:27:10;;;;;;;12.23;3.95;;;;;;;1.12;78.21;101933.03;2741350;26;19999;-74
2024/04/11 03:28:23;;;;;;;5.05;3.97;;;;;;;1.16;78.20;101934.97;2735142;26;19999;-74
2024/04/11 03:29:36;;;;;;;4.10;3.65;;;;;;;1.20;77.94;101934.28;2723716;26;20073;-74
2024/04/11 03:31:08;;;;;;;5.07;4.18;;;;;;;1.22;78.06;101937.81;2711928;26;20011;-74
2024/04/11 03:32:21;;;;;;;5.53;3.72;;;;;;;1.23;78.13;101936.13;2708604;26;20000;-74
2024/04/11 03:33:35;;;;;;;3.85;3.55;;;;;;;1.24;78.29;101945.59;2698642;26;20037;-74
2024/04/11 03:34:48;;;;;;;11.10;4.03;;;;;;;1.23;78.32;101938.69;2690284;26;20011;-74
2024/04/11 03:36:05;;;;;;;8.23;3.42;;;;;;;1.22;78.24;101937.81;2705335;26;20958;-74
2024/04/11 03:37:19;;;;;;;7.43;4.15;;;;;;;1.18;78.24;101935.88;2705515;26;20093;-74
2024/04/11 03:38:33;;;;;;;5.55;3.95;;;;;;;1.17;78.23;101946.13;2702075;26;20012;-75
2024/04/11 03:39:47;;;;;;;3.55;3.25;;;;;;;1.13;78.03;101939.91;2709492;26;20007;-74
2024/04/11 03:41:04;;;;;;;4.88;3.25;;;;;;;1.08;78.01;101944.84;2712247;26;20035;-74
2024/04/11 03:42:18;;;;;;;5.68;4.10;;;;;;;1.05;78.19;101954.09;2717679;26;20082;-75
2024/04/11 03:43:34;;;;;;;8.82;4.85;;;;;;;1.01;78.23;101955.63;2705181;26;20086;-74
2024/04/11 03:44:48;;;;;;;4.15;3.58;;;;;;;0.99;78.52;101956.34;2695113;26;20047;-74
2024/04/11 03:46:18;;;;;;;5.63;3.78;;;;;;;0.95;78.21;101964.69;2695018;26;20078;-74
2024/04/11 03:47:32;;;;;;;5.40;3.80;;;;;;;0.90;78.58;101954.16;2697272;26;20001;-74
2024/04/11 03:48:51;;;;;;;6.40;4.50;;;;;;;0.90;78.31;101961.00;2706020;26;20015;-75
2024/04/11 03:50:05;;;;;;;4.25;3.85;;;;;;;0.89;78.53;101957.56;2709211;26;20396;-75
2024/04/11 03:51:20;;;;;;;4.90;3.97;;;;;;;0.87;78.54;101960.03;2712855;26;20000;-74
2024/04/11 03:52:33;;;;;;;5.90;4.05;;;;;;;0.82;78.33;101964.06;2723064;26;20403;-74
2024/04/11 03:53:47;;;;;;;8.05;4.93;;;;;;;0.78;78.31;101964.72;2723835;26;20006;-74
2024/04/11 03:55:01;;;;;;;7.28;3.97;;;;;;;0.74;78.22;101956.75;2723581;26;20008;-74
2024/04/11 03:56:14;;;;;;;5.72;3.42;;;;;;;0.69;78.42;101964.22;2711377;26;20014;-74
2024/04/11 03:57:28;;;;;;;6.53;3.70;;;;;;;0.68;78.33;101966.72;2711347;26;19999;-74
2024/04/11 03:58:42;;;;;;;5.30;3.50;;;;;;;0.67;78.30;101965.81;2723656;26;19995;-75
2024/04/11 03:59:56;;;;;;;4.40;3.92;;;;;;;0.67;78.70;101973.53;2722593;26;20083;-74
2024/04/11 04:01:13;;;;;;;4.25;3.85;;;;;;;0.68;78.68;101972.75;2711787;26;20006;-74
2024/04/11 04:02:27;;;;;;;4.20;3.80;;;;;;;0.67;78.55;101976.09;2712535;26;20221;-75
2024/04/11 04:03:47;;;;;;;4.97;3.80;;;;;;;0.68;78.58;101979.56;2723447;26;20811;-75
2024/04/11 04:05:00;;;;;;;3.58;3.28;;;;;;;0.67;78.96;101978.66;2723540;26;20226;-74
2024/04/11 04:06:14;;;;;;;5.47;4.15;;;;;;;0.71;78.86;101982.31;2723898;26;20270;-74
2024/04/11 04:07:28;;;;;;;7.18;4.07;;;;;;;0.74;79.18;101983.34;2722311;26;20051;-74
2024/04/11 04:08:46;;;;;;;5.43;3.63;;;;;;;0.79;79.04;101989.59;2712105;26;20718;-74
2024/04/11 04:10:02;;;;;;;3.95;3.25;;;;;;;0.82;79.08;101986.31;2723401;26;20039;-74
2024/04/11 04:11:18;;;;;;;6.88;4.97;;;;;;;0.86;79.14;101990.81;2722739;26;20080;-74
2024/04/11 04:12:31;;;;;;;4.20;3.80;;;;;;;0.88;79.02;101989.22;2712362;26;20848;-74
2024/04/11 04:13:44;;;;;;;7.57;4.28;;;;;;;0.88;78.89;101996.94;2711410;26;20237;-74
2024/04/11 04:14:57;;;;;;;10.20;3.75;;;;;;;0.90;79.06;101991.84;2711643;26;20011;-75
2024/04/11 04:16:11;;;;;;;7.20;3.80;;;;;;;0.92;79.10;101992.81;2722984;26;20015;-74
2024/04/11 04:17:27;;;;;;;6.95;3.97;;;;;;;0.93;79.03;101998.06;2723241;26;20011;-75
2024/04/11 04:18:41;;;;;;;5.30;3.63;;;;;;;0.93;79.24;101995.47;2723455;26;20003;-76
2024/04/11 04:19:54;;;;;;;8.55;3.83;;;;;;;0.94;78.94;101996.34;2722740;26;20277;-74
2024/04/11 04:21:07;;;;;;;3.65;3.28;;;;;;;0.89;78.57;102000.38;2711470;26;20003;-74
2024/04/11 04:22:22;;;;;;;3.35;3.05;;;;;;;0.87;79.16;102001.16;2693910;26;20036;-74
2024/04/11 04:23:35;;;;;;;8.70;4.35;;;;;;;0.86;78.90;102006.25;2709002;26;21615;-75
2024/04/11 04:24:50;;;;;;;6.32;3.45;;;;;;;0.85;78.74;102009.59;2705599;26;20004;-74
2024/04/11 04:26:05;;;;;;;4.05;3.58;;;;;;;0.85;79.06;102004.44;2705587;26;20043;-74
2024/04/11 04:27:18;;;;;;;9.05;4.13;;;;;;;0.81;78.67;102005.13;2704100;26;20290;-74
2024/04/11 04:28:33;;;;;;;7.32;3.58;;;;;;;0.78;78.62;102003.25;2705042;26;20005;-74
2024/04/11 04:29:52;;;;;;;7.55;3.83;;;;;;;0.75;78.66;102003.09;2718188;26;20367;-75
2024/04/11 04:31:16;;;;;;;7.88;4.30;;;;;;;0.76;78.78;102006.56;2725165;26;20417;-75
2024/04/11 04:32:30;;;;;;;4.72;3.97;;;;;;;0.75;78.65;102009.91;2724668;26;20297;-74
2024/04/11 04:33:47;;;;;;;9.35;5.28;;;;;;;0.72;78.56;102005.50;2725354;26;20073;-74
2024/04/11 04:35:01;;;;;;;15.27;5.63;;;;;;;0.70;78.52;102001.97;2724962;26;19999;-75
2024/04/11 04:36:23;;;;;;;10.95;4.70;;;;;;;0.72;78.58;102005.50;2725179;26;20053;-74
2024/04/11 04:37:37;;;;;;;15.43;6.73;;;;;;;0.72;78.88;102008.06;2724851;26;20047;-76
2024/04/11 04:38:52;;;;;;;9.88;3.78;;;;;;;0.74;78.67;102011.59;2715226;26;20269;-74
2024/04/11 04:40:06;;;;;;;8.73;4.43;;;;;;;0.76;78.69;102007.44;2713622;26;20266;-75
2024/04/11 04:41:20;;;;;;;5.55;4.72;;;;;;;0.76;78.66;102015.16;2725311;26;20225;-75
2024/04/11 04:42:33;;;;;;;18.02;4.50;;;;;;;0.77;78.49;102014.31;2724952;26;20325;-74
2024/04/11 04:43:53;;;;;;;9.90;4.32;;;;;;;0.78;78.63;102016.13;2700185;26;20723;-74
2024/04/11 04:45:09;;;;;;;9.02;4.70;;;;;;;0.76;78.57;102019.41;2696933;26;20007;-74
2024/04/11 04:46:24;;;;;;;8.43;4.63;;;;;;;0.76;78.68;102020.28;2707418;26;20028;-75
2024/04/11 04:47:40;;;;;;;5.07;3.45;;;;;;;0.76;78.67;102022.84;2706683;26;20376;-74
2024/04/11 04:48:53;;;;;;;4.90;3.63;;;;;;;0.76;78.49;102025.41;2707157;26;20015;-74
2024/04/11 04:50:06;;;;;;;6.25;4.47;;;;;;;0.73;78.45;102014.97;2707220;26;20230;-74
2024/04/11 04:51:20;;;;;;;4.25;3.90;;;;;;;0.73;78.43;102016.69;2707769;26;20000;-74
2024/04/11 04:52:33;;;;;;;10.88;4.85;;;;;;;0.73;78.72;102021.81;2706798;26;19996;-74
2024/04/11 04:53:52;;;;;;;10.55;4.78;;;;;;;0.70;78.50;102013.91;2707316;26;20076;-74
2024/04/11 04:55:09;;;;;;;6.88;3.88;;;;;;;0.68;78.47;102015.53;2706748;26;20465;-74
2024/04/11 04:56:22;;;;;;;7.65;4.35;;;;;;;0.68;78.60;102007.84;2695876;26;20226;-74
2024/04/11 04:57:36;;;;;;;9.05;5.97;;;;;;;0.69;78.67;102013.03;2706827;26;19996;-74
2024/04/11 04:58:51;;;;;;;6.47;4.57;;;;;;;0.72;78.78;102015.78;2707010;26;20004;-74
2024/04/11 05:00:13;;;;;;;7.03;4.18;;;;;;;0.74;78.57;102009.03;2695169;26;20604;-74
2024/04/11 05:01:26;;;;;;;10.32;4.97;;;;;;;0.74;78.65;102016.75;2707383;26;20264;-75
2024/04/11 05:02:40;;;;;;;6.05;5.03;;;;;;;0.76;78.81;102016.84;2706862;26;20007;-74
2024/04/11 05:03:55;;;;;;;7.93;3.33;;;;;;;0.79;78.84;102010.16;2706722;26;20019;-74
2024/04/11 05:05:11;;;;;;;8.65;4.78;;;;;;;0.83;78.84;102009.53;2706109;26;20000;-74
2024/04/11 05:06:26;;;;;;;6.45;4.05;;;;;;;0.89;78.81;102008.09;2706938;26;20011;-75
2024/04/11 05:07:40;;;;;;;6.07;3.88;;;;;;;0.89;78.74;101998.69;2707387;26;20010;-75
2024/04/11 05:08:54;;;;;;;5.05;3.95;;;;;;;0.91;78.77;102007.38;2707847;26;20001;-74
2024/04/11 05:10:07;;;;;;;4.88;3.22;;;;;;;0.94;78.82;102001.50;2706650;26;20000;-74
2024/04/11 05:11:21;;;;;;;5.18;4.68;;;;;;;0.99;78.79;102008.63;2706994;26;20004;-75
2024/04/11 05:12:43;;;;;;;8.52;5.20;;;;;;;1.04;78.91;102007.19;2716030;26;20051;-76
2024/04/11 05:13:57;;;;;;;8.60;3.90;;;;;;;1.05;78.78;102006.38;2715110;26;20092;-75
2024/04/11 05:15:12;;;;;;;5.00;4.38;;;;;;;1.06;78.74;102002.16;2706659;26;19997;-74
2024/04/11 05:16:25;;;;;;;7.80;4.07;;;;;;;1.09;78.85;102012.59;2695544;26;20000;-73
2024/04/11 05:17:41;;;;;;;7.50;4.03;;;;;;;1.13;78.97;102011.03;2706119;26;19995;-73
2024/04/11 05:18:54;;;;;;;5.07;4.05;;;;;;;1.16;78.88;102013.75;2713357;26;19996;-74
2024/04/11 05:20:17;;;;;;;6.88;5.47;;;;;;;1.19;79.02;102007.09;2707320;26;20008;-74
2024/04/11 05:21:32;;;;;;;6.07;3.30;;;;;;;1.19;78.78;102009.69;2706713;26;19996;-74
2024/04/11 05:22:46;;;;;;;5.22;3.58;;;;;;;1.19;78.89;102012.25;2698160;26;19996;-73
2024/04/11 05:24:00;;;;;;;5.65;4.43;;;;;;;1.22;78.87;102014.97;2694652;26;19996;-73
2024/04/11 05:25:17;;;;;;;4.75;3.92;;;;;;;1.28;78.53;102014.41;2695049;26;20002;-74
2024/04/11 05:26:31;;;;;;;5.70;5.10;;;;;;;1.34;78.75;102014.69;2707002;26;20233;-74
2024/04/11 05:27:45;;;;;;;4.80;4.25;;;;;;;1.40;78.85;102019.28;2706075;26;20002;-74
2024/04/11 05:28:58;;;;;;;8.63;4.18;;;;;;;1.49;78.74;102023.19;2695571;26;20019;-74
2024/04/11 05:30:11;;;;;;;5.63;4.57;;;;;;;1.58;78.59;102017.66;2695372;26;20429;-73
2024/04/11 05:31:25;;;;;;;5.03;4.25;;;;;;;1.67;78.86;102009.47;2706515;26;20444;-74
2024/04/11 05:32:39;;;;;;;6.55;4.13;;;;;;;1.83;78.67;102013.69;2712412;26;19999;-73
2024/04/11 05:33:54;;;;;;;7.57;3.90;;;;;;;1.99;78.35;102015.31;2724426;26;20007;-74
2024/04/11 05:35:09;;;;;;;4.10;3.70;;;;;;;2.14;78.48;102009.22;2713134;26;20010;-74
2024/04/11 05:36:28;;;;;;;9.85;5.70;;;;;;;2.29;78.21;102010.75;2718367;26;20008;-73
2024/04/11 05:37:45;;;;;;;5.82;3.88;;;;;;;2.44;78.13;102014.03;2706347;26;20000;-74
2024/04/11 05:38:58;;;;;;;9.82;4.10;;;;;;;2.58;77.75;102009.50;2696933;26;20084;-74
2024/04/11 05:40:14;;;;;;;12.73;3.80;;;;;;;2.73;77.62;102012.78;2706165;26;20356;-74
2024/04/11 05:41:27;;;;;;;5.70;3.50;;;;;;;2.84;77.15;102008.13;2706178;26;20000;-74
2024/04/11 05:42:45;;;;;;;7.40;4.70;;;;;;;2.96;77.05;102012.94;2716619;26;20076;-74
2024/04/11 05:43:59;;;;;;;4.30;3.67;;;;;;;3.10;76.90;102016.09;2723693;26;19996;-73
2024/04/11 05:45:16;;;;;;;5.88;3.30;;;;;;;3.22;76.65;102026.97;2713913;26;20000;-74
2024/04/11 05:46:30;;;;;;;8.88;3.58;;;;;;;3.33;76.70;102022.25;2706197;26;19996;-73
2024/04/11 05:47:44;;;;;;;8.48;3.78;;;;;;;3.41;76.23;102024.38;2695299;26;20007;-73
2024/04/11 05:48:57;;;;;;;3.70;2.92;;;;;;;3.47;76.15;102026.34;2707119;26;20015;-74
2024/04/11 05:50:10;;;;;;;5.22;3.58;;;;;;;3.50;75.65;102039.34;2707566;26;20048;-74
2024/04/11 05:51:24;;;;;;;8.55;3.70;;;;;;;3.52;75.58;102040.31;2707026;26;20000;-74
2024/04/11 05:52:37;;;;;;;6.97;3.33;;;;;;;3.58;75.69;102037.09;2707703;26;20015;-74